sensor_id;sensor_type;location;lat;lon;timestamp;P1;durP1;ratioP1;P2;durP2;ratioP2
32786;SDS011;19139;49.372;8.580;2024-01-30T00:00:02;15.87;;;11.37;;
32786;SDS011;19139;49.372;8.580;2024-01-30T00:02:30;17.53;;;12.80;;
32786;SDS011;19139;49.372;8.580;2024-01-30T00:04:58;17.30;;;11.77;;
32786;SDS011;19139;49.372;8.580;2024-01-30T00:07:24;15.53;;;11.03;;
32786;SDS011;19139;49.372;8.580;2024-01-30T00:09:51;14.80;;;11.17;;
32786;SDS011;19139;49.372;8.580;2024-01-30T00:12:18;15.43;;;11.63;;
32786;SDS011;19139;49.372;8.580;2024-01-30T00:14:45;19.37;;;13.20;;
32786;SDS011;19139;49.372;8.580;2024-01-30T00:17:12;12.20;;;10.83;;
32786;SDS011;19139;49.372;8.580;2024-01-30T00:19:38;15.07;;;11.10;;
32786;SDS011;19139;49.372;8.580;2024-01-30T00:22:05;14.10;;;9.73;;
32786;SDS011;19139;49.372;8.580;2024-01-30T00:24:33;16.93;;;11.20;;
32786;SDS011;19139;49.372;8.580;2024-01-30T00:26:59;17.07;;;11.60;;
32786;SDS011;19139;49.372;8.580;2024-01-30T00:29:26;16.03;;;10.40;;
32786;SDS011;19139;49.372;8.580;2024-01-30T00:31:56;12.63;;;10.90;;
32786;SDS011;19139;49.372;8.580;2024-01-30T00:34:23;18.27;;;10.50;;
32786;SDS011;19139;49.372;8.580;2024-01-30T00:36:50;14.77;;;10.43;;
32786;SDS011;19139;49.372;8.580;2024-01-30T00:39:17;15.00;;;10.97;;
32786;SDS011;19139;49.372;8.580;2024-01-30T00:41:45;12.87;;;10.87;;
32786;SDS011;19139;49.372;8.580;2024-01-30T00:44:12;13.20;;;10.50;;
32786;SDS011;19139;49.372;8.580;2024-01-30T00:46:39;15.30;;;11.33;;
32786;SDS011;19139;49.372;8.580;2024-01-30T00:49:06;13.57;;;11.00;;
32786;SDS011;19139;49.372;8.580;2024-01-30T00:51:33;13.53;;;10.77;;
32786;SDS011;19139;49.372;8.580;2024-01-30T00:53:59;14.67;;;10.20;;
32786;SDS011;19139;49.372;8.580;2024-01-30T00:56:26;13.80;;;10.27;;
32786;SDS011;19139;49.372;8.580;2024-01-30T00:58:53;15.23;;;10.40;;
32786;SDS011;19139;49.372;8.580;2024-01-30T01:01:20;15.90;;;10.23;;
32786;SDS011;19139;49.372;8.580;2024-01-30T01:03:47;17.27;;;10.73;;
32786;SDS011;19139;49.372;8.580;2024-01-30T01:06:15;16.00;;;11.43;;
32786;SDS011;19139;49.372;8.580;2024-01-30T01:08:42;14.60;;;10.83;;
32786;SDS011;19139;49.372;8.580;2024-01-30T01:11:08;14.57;;;10.17;;
32786;SDS011;19139;49.372;8.580;2024-01-30T01:13:35;15.17;;;11.30;;
32786;SDS011;19139;49.372;8.580;2024-01-30T01:16:02;16.03;;;11.07;;
32786;SDS011;19139;49.372;8.580;2024-01-30T01:18:30;15.03;;;11.53;;
32786;SDS011;19139;49.372;8.580;2024-01-30T01:20:57;14.30;;;10.63;;
32786;SDS011;19139;49.372;8.580;2024-01-30T01:23:23;11.77;;;9.57;;
32786;SDS011;19139;49.372;8.580;2024-01-30T01:25:50;14.73;;;10.73;;
32786;SDS011;19139;49.372;8.580;2024-01-30T01:28:17;14.23;;;9.83;;
32786;SDS011;19139;49.372;8.580;2024-01-30T01:30:44;12.40;;;9.27;;
32786;SDS011;19139;49.372;8.580;2024-01-30T01:33:11;12.40;;;9.57;;
32786;SDS011;19139;49.372;8.580;2024-01-30T01:35:40;14.17;;;9.73;;
32786;SDS011;19139;49.372;8.580;2024-01-30T01:38:07;13.60;;;10.10;;
32786;SDS011;19139;49.372;8.580;2024-01-30T01:40:34;11.07;;;8.83;;
32786;SDS011;19139;49.372;8.580;2024-01-30T01:43:02;11.47;;;8.10;;
32786;SDS011;19139;49.372;8.580;2024-01-30T01:45:31;11.97;;;8.73;;
32786;SDS011;19139;49.372;8.580;2024-01-30T01:47:58;10.17;;;8.50;;
32786;SDS011;19139;49.372;8.580;2024-01-30T01:50:25;12.97;;;8.50;;
32786;SDS011;19139;49.372;8.580;2024-01-30T01:52:52;11.03;;;8.20;;
32786;SDS011;19139;49.372;8.580;2024-01-30T01:55:21;13.97;;;9.60;;
32786;SDS011;19139;49.372;8.580;2024-01-30T01:57:53;11.57;;;8.67;;
32786;SDS011;19139;49.372;8.580;2024-01-30T02:00:20;14.13;;;9.47;;
32786;SDS011;19139;49.372;8.580;2024-01-30T02:02:48;13.80;;;9.43;;
32786;SDS011;19139;49.372;8.580;2024-01-30T02:05:16;13.13;;;9.53;;
32786;SDS011;19139;49.372;8.580;2024-01-30T02:07:43;11.77;;;8.87;;
32786;SDS011;19139;49.372;8.580;2024-01-30T02:10:10;11.90;;;9.53;;
32786;SDS011;19139;49.372;8.580;2024-01-30T02:12:37;10.80;;;8.67;;
32786;SDS011;19139;49.372;8.580;2024-01-30T02:15:05;12.43;;;9.80;;
32786;SDS011;19139;49.372;8.580;2024-01-30T02:17:33;11.47;;;9.10;;
32786;SDS011;19139;49.372;8.580;2024-01-30T02:20:00;12.80;;;9.30;;
32786;SDS011;19139;49.372;8.580;2024-01-30T02:22:28;13.53;;;9.57;;
32786;SDS011;19139;49.372;8.580;2024-01-30T02:24:55;12.77;;;9.00;;
32786;SDS011;19139;49.372;8.580;2024-01-30T02:27:22;12.20;;;9.53;;
32786;SDS011;19139;49.372;8.580;2024-01-30T02:29:48;12.70;;;9.50;;
32786;SDS011;19139;49.372;8.580;2024-01-30T02:32:15;11.00;;;9.50;;
32786;SDS011;19139;49.372;8.580;2024-01-30T02:34:42;12.90;;;9.63;;
32786;SDS011;19139;49.372;8.580;2024-01-30T02:37:09;10.73;;;8.57;;
32786;SDS011;19139;49.372;8.580;2024-01-30T02:39:35;13.33;;;9.33;;
32786;SDS011;19139;49.372;8.580;2024-01-30T02:42:02;12.30;;;9.93;;
32786;SDS011;19139;49.372;8.580;2024-01-30T02:44:29;12.70;;;9.07;;
32786;SDS011;19139;49.372;8.580;2024-01-30T02:46:56;10.97;;;9.37;;
32786;SDS011;19139;49.372;8.580;2024-01-30T02:49:22;13.03;;;9.17;;
32786;SDS011;19139;49.372;8.580;2024-01-30T02:51:53;11.63;;;9.53;;
32786;SDS011;19139;49.372;8.580;2024-01-30T02:54:20;10.77;;;8.57;;
32786;SDS011;19139;49.372;8.580;2024-01-30T02:56:47;10.70;;;9.47;;
32786;SDS011;19139;49.372;8.580;2024-01-30T02:59:14;12.20;;;8.40;;
32786;SDS011;19139;49.372;8.580;2024-01-30T03:01:44;11.77;;;8.63;;
32786;SDS011;19139;49.372;8.580;2024-01-30T03:04:12;11.07;;;9.23;;
32786;SDS011;19139;49.372;8.580;2024-01-30T03:06:44;11.63;;;9.23;;
32786;SDS011;19139;49.372;8.580;2024-01-30T03:09:12;12.13;;;9.20;;
32786;SDS011;19139;49.372;8.580;2024-01-30T03:11:39;10.73;;;9.10;;
32786;SDS011;19139;49.372;8.580;2024-01-30T03:14:06;11.67;;;8.83;;
32786;SDS011;19139;49.372;8.580;2024-01-30T03:16:34;16.97;;;10.20;;
32786;SDS011;19139;49.372;8.580;2024-01-30T03:19:01;11.27;;;8.90;;
32786;SDS011;19139;49.372;8.580;2024-01-30T03:21:29;13.97;;;9.57;;
32786;SDS011;19139;49.372;8.580;2024-01-30T03:23:56;15.70;;;9.40;;
32786;SDS011;19139;49.372;8.580;2024-01-30T03:26:23;10.20;;;9.00;;
32786;SDS011;19139;49.372;8.580;2024-01-30T03:28:50;12.50;;;9.30;;
32786;SDS011;19139;49.372;8.580;2024-01-30T03:31:16;10.67;;;8.90;;
32786;SDS011;19139;49.372;8.580;2024-01-30T03:33:43;11.03;;;9.67;;
32786;SDS011;19139;49.372;8.580;2024-01-30T03:36:12;10.90;;;9.63;;
32786;SDS011;19139;49.372;8.580;2024-01-30T03:38:41;12.40;;;9.60;;
32786;SDS011;19139;49.372;8.580;2024-01-30T03:41:08;12.27;;;9.57;;
32786;SDS011;19139;49.372;8.580;2024-01-30T03:43:38;16.83;;;10.60;;
32786;SDS011;19139;49.372;8.580;2024-01-30T03:46:04;13.17;;;9.97;;
32786;SDS011;19139;49.372;8.580;2024-01-30T03:48:31;11.90;;;8.93;;
32786;SDS011;19139;49.372;8.580;2024-01-30T03:50:58;10.57;;;8.87;;
32786;SDS011;19139;49.372;8.580;2024-01-30T03:53:25;12.13;;;9.63;;
32786;SDS011;19139;49.372;8.580;2024-01-30T03:55:51;12.33;;;9.23;;
32786;SDS011;19139;49.372;8.580;2024-01-30T03:58:18;13.00;;;9.40;;
32786;SDS011;19139;49.372;8.580;2024-01-30T04:00:45;11.87;;;9.93;;
32786;SDS011;19139;49.372;8.580;2024-01-30T04:03:12;14.40;;;10.97;;
32786;SDS011;19139;49.372;8.580;2024-01-30T04:05:40;13.47;;;10.90;;
32786;SDS011;19139;49.372;8.580;2024-01-30T04:08:07;12.90;;;9.57;;
32786;SDS011;19139;49.372;8.580;2024-01-30T04:10:34;11.47;;;9.07;;
32786;SDS011;19139;49.372;8.580;2024-01-30T04:13:00;13.70;;;9.43;;
32786;SDS011;19139;49.372;8.580;2024-01-30T04:15:27;11.00;;;9.43;;
32786;SDS011;19139;49.372;8.580;2024-01-30T04:17:58;13.47;;;9.20;;
32786;SDS011;19139;49.372;8.580;2024-01-30T04:20:25;13.00;;;9.07;;
32786;SDS011;19139;49.372;8.580;2024-01-30T04:22:52;12.97;;;9.67;;
32786;SDS011;19139;49.372;8.580;2024-01-30T04:25:19;11.80;;;8.60;;
32786;SDS011;19139;49.372;8.580;2024-01-30T04:27:46;14.23;;;9.13;;
32786;SDS011;19139;49.372;8.580;2024-01-30T04:30:13;10.53;;;8.63;;
32786;SDS011;19139;49.372;8.580;2024-01-30T04:32:40;11.47;;;9.07;;
32786;SDS011;19139;49.372;8.580;2024-01-30T04:35:07;10.47;;;8.33;;
32786;SDS011;19139;49.372;8.580;2024-01-30T04:37:37;12.73;;;8.70;;
32786;SDS011;19139;49.372;8.580;2024-01-30T04:40:04;11.80;;;9.20;;
32786;SDS011;19139;49.372;8.580;2024-01-30T04:42:31;12.87;;;9.27;;
32786;SDS011;19139;49.372;8.580;2024-01-30T04:44:58;10.07;;;8.33;;
32786;SDS011;19139;49.372;8.580;2024-01-30T04:47:25;12.17;;;9.47;;
32786;SDS011;19139;49.372;8.580;2024-01-30T04:49:52;12.93;;;9.23;;
32786;SDS011;19139;49.372;8.580;2024-01-30T04:52:19;10.90;;;8.63;;
32786;SDS011;19139;49.372;8.580;2024-01-30T04:54:47;12.80;;;9.50;;
32786;SDS011;19139;49.372;8.580;2024-01-30T04:57:13;12.77;;;10.20;;
32786;SDS011;19139;49.372;8.580;2024-01-30T04:59:40;13.27;;;9.73;;
32786;SDS011;19139;49.372;8.580;2024-01-30T05:02:07;13.03;;;10.13;;
32786;SDS011;19139;49.372;8.580;2024-01-30T05:04:34;16.33;;;12.23;;
32786;SDS011;19139;49.372;8.580;2024-01-30T05:07:01;14.47;;;10.57;;
32786;SDS011;19139;49.372;8.580;2024-01-30T05:09:28;11.10;;;9.60;;
32786;SDS011;19139;49.372;8.580;2024-01-30T05:11:55;13.27;;;10.63;;
32786;SDS011;19139;49.372;8.580;2024-01-30T05:14:22;13.47;;;10.37;;
32786;SDS011;19139;49.372;8.580;2024-01-30T05:16:48;15.90;;;11.43;;
32786;SDS011;19139;49.372;8.580;2024-01-30T05:19:15;13.70;;;11.23;;
32786;SDS011;19139;49.372;8.580;2024-01-30T05:21:43;15.80;;;11.20;;
32786;SDS011;19139;49.372;8.580;2024-01-30T05:24:10;14.43;;;10.70;;
32786;SDS011;19139;49.372;8.580;2024-01-30T05:26:37;14.93;;;10.60;;
32786;SDS011;19139;49.372;8.580;2024-01-30T05:29:04;13.77;;;11.20;;
32786;SDS011;19139;49.372;8.580;2024-01-30T05:31:31;17.50;;;11.67;;
32786;SDS011;19139;49.372;8.580;2024-01-30T05:33:58;13.70;;;10.80;;
32786;SDS011;19139;49.372;8.580;2024-01-30T05:36:25;13.23;;;10.03;;
32786;SDS011;19139;49.372;8.580;2024-01-30T05:38:52;15.33;;;11.77;;
32786;SDS011;19139;49.372;8.580;2024-01-30T05:41:19;13.77;;;11.20;;
32786;SDS011;19139;49.372;8.580;2024-01-30T05:43:47;13.70;;;11.57;;
32786;SDS011;19139;49.372;8.580;2024-01-30T05:46:14;13.57;;;10.77;;
32786;SDS011;19139;49.372;8.580;2024-01-30T05:48:41;14.50;;;11.13;;
32786;SDS011;19139;49.372;8.580;2024-01-30T05:51:08;16.63;;;11.10;;
32786;SDS011;19139;49.372;8.580;2024-01-30T05:53:34;16.30;;;11.90;;
32786;SDS011;19139;49.372;8.580;2024-01-30T05:56:01;11.60;;;10.43;;
32786;SDS011;19139;49.372;8.580;2024-01-30T05:58:29;16.33;;;11.13;;
32786;SDS011;19139;49.372;8.580;2024-01-30T06:00:57;14.30;;;11.40;;
32786;SDS011;19139;49.372;8.580;2024-01-30T06:03:24;15.83;;;11.20;;
32786;SDS011;19139;49.372;8.580;2024-01-30T06:05:51;16.63;;;11.30;;
32786;SDS011;19139;49.372;8.580;2024-01-30T06:08:18;13.70;;;10.77;;
32786;SDS011;19139;49.372;8.580;2024-01-30T06:10:45;15.80;;;12.30;;
32786;SDS011;19139;49.372;8.580;2024-01-30T06:13:12;17.53;;;11.90;;
32786;SDS011;19139;49.372;8.580;2024-01-30T06:15:39;14.43;;;11.03;;
32786;SDS011;19139;49.372;8.580;2024-01-30T06:18:05;14.83;;;11.50;;
32786;SDS011;19139;49.372;8.580;2024-01-30T06:20:32;14.80;;;11.07;;
32786;SDS011;19139;49.372;8.580;2024-01-30T06:22:59;17.00;;;11.60;;
32786;SDS011;19139;49.372;8.580;2024-01-30T06:25:26;16.10;;;11.87;;
32786;SDS011;19139;49.372;8.580;2024-01-30T06:27:54;14.13;;;11.77;;
32786;SDS011;19139;49.372;8.580;2024-01-30T06:30:21;17.73;;;12.73;;
32786;SDS011;19139;49.372;8.580;2024-01-30T06:32:47;14.07;;;11.83;;
32786;SDS011;19139;49.372;8.580;2024-01-30T06:35:14;18.23;;;11.77;;
32786;SDS011;19139;49.372;8.580;2024-01-30T06:37:41;14.70;;;11.07;;
32786;SDS011;19139;49.372;8.580;2024-01-30T06:40:08;15.97;;;12.20;;
32786;SDS011;19139;49.372;8.580;2024-01-30T06:42:36;16.67;;;11.60;;
32786;SDS011;19139;49.372;8.580;2024-01-30T06:45:11;14.00;;;10.87;;
32786;SDS011;19139;49.372;8.580;2024-01-30T06:47:38;16.23;;;12.13;;
32786;SDS011;19139;49.372;8.580;2024-01-30T06:50:05;17.60;;;12.63;;
32786;SDS011;19139;49.372;8.580;2024-01-30T06:52:32;16.73;;;11.80;;
32786;SDS011;19139;49.372;8.580;2024-01-30T06:54:59;15.77;;;11.97;;
32786;SDS011;19139;49.372;8.580;2024-01-30T06:57:26;16.70;;;13.20;;
32786;SDS011;19139;49.372;8.580;2024-01-30T06:59:54;19.33;;;14.70;;
32786;SDS011;19139;49.372;8.580;2024-01-30T07:02:21;19.43;;;13.47;;
32786;SDS011;19139;49.372;8.580;2024-01-30T07:04:48;17.27;;;14.07;;
32786;SDS011;19139;49.372;8.580;2024-01-30T07:07:15;18.90;;;13.47;;
32786;SDS011;19139;49.372;8.580;2024-01-30T07:09:42;17.73;;;11.70;;
32786;SDS011;19139;49.372;8.580;2024-01-30T07:12:09;14.20;;;11.73;;
32786;SDS011;19139;49.372;8.580;2024-01-30T07:14:36;16.60;;;11.90;;
32786;SDS011;19139;49.372;8.580;2024-01-30T07:17:03;16.13;;;13.20;;
32786;SDS011;19139;49.372;8.580;2024-01-30T07:19:30;17.27;;;11.50;;
32786;SDS011;19139;49.372;8.580;2024-01-30T07:21:56;15.23;;;11.37;;
32786;SDS011;19139;49.372;8.580;2024-01-30T07:24:23;15.43;;;11.43;;
32786;SDS011;19139;49.372;8.580;2024-01-30T07:26:50;14.80;;;10.80;;
32786;SDS011;19139;49.372;8.580;2024-01-30T07:29:17;17.13;;;12.10;;
32786;SDS011;19139;49.372;8.580;2024-01-30T07:31:44;17.60;;;11.60;;
32786;SDS011;19139;49.372;8.580;2024-01-30T07:34:11;14.23;;;11.23;;
32786;SDS011;19139;49.372;8.580;2024-01-30T07:36:38;14.37;;;10.57;;
32786;SDS011;19139;49.372;8.580;2024-01-30T07:39:05;13.10;;;10.43;;
32786;SDS011;19139;49.372;8.580;2024-01-30T07:41:32;17.30;;;12.70;;
32786;SDS011;19139;49.372;8.580;2024-01-30T07:43:59;17.20;;;13.77;;
32786;SDS011;19139;49.372;8.580;2024-01-30T07:46:26;17.07;;;12.23;;
32786;SDS011;19139;49.372;8.580;2024-01-30T07:48:53;16.37;;;12.57;;
32786;SDS011;19139;49.372;8.580;2024-01-30T07:51:21;14.40;;;12.53;;
32786;SDS011;19139;49.372;8.580;2024-01-30T07:53:47;20.10;;;13.83;;
32786;SDS011;19139;49.372;8.580;2024-01-30T07:56:17;17.63;;;12.23;;
32786;SDS011;19139;49.372;8.580;2024-01-30T07:58:44;17.57;;;12.60;;
32786;SDS011;19139;49.372;8.580;2024-01-30T08:01:11;18.73;;;14.00;;
32786;SDS011;19139;49.372;8.580;2024-01-30T08:03:38;17.03;;;12.50;;
32786;SDS011;19139;49.372;8.580;2024-01-30T08:06:07;18.43;;;12.87;;
32786;SDS011;19139;49.372;8.580;2024-01-30T08:08:34;20.93;;;12.37;;
32786;SDS011;19139;49.372;8.580;2024-01-30T08:11:01;16.40;;;12.47;;
32786;SDS011;19139;49.372;8.580;2024-01-30T08:13:28;18.07;;;12.80;;
32786;SDS011;19139;49.372;8.580;2024-01-30T08:15:55;15.43;;;11.67;;
32786;SDS011;19139;49.372;8.580;2024-01-30T08:18:21;15.63;;;10.73;;
32786;SDS011;19139;49.372;8.580;2024-01-30T08:20:48;14.73;;;11.03;;
32786;SDS011;19139;49.372;8.580;2024-01-30T08:23:15;14.37;;;10.87;;
32786;SDS011;19139;49.372;8.580;2024-01-30T08:25:42;13.80;;;10.70;;
32786;SDS011;19139;49.372;8.580;2024-01-30T08:28:09;14.63;;;10.93;;
32786;SDS011;19139;49.372;8.580;2024-01-30T08:30:36;13.40;;;10.87;;
32786;SDS011;19139;49.372;8.580;2024-01-30T08:33:05;14.73;;;11.00;;
32786;SDS011;19139;49.372;8.580;2024-01-30T08:35:32;18.03;;;12.63;;
32786;SDS011;19139;49.372;8.580;2024-01-30T08:38:00;15.60;;;12.87;;
32786;SDS011;19139;49.372;8.580;2024-01-30T08:40:26;15.87;;;12.67;;
32786;SDS011;19139;49.372;8.580;2024-01-30T08:42:55;17.50;;;11.43;;
32786;SDS011;19139;49.372;8.580;2024-01-30T08:45:22;13.00;;;11.33;;
32786;SDS011;19139;49.372;8.580;2024-01-30T08:47:48;13.90;;;11.07;;
32786;SDS011;19139;49.372;8.580;2024-01-30T08:50:15;16.63;;;11.70;;
32786;SDS011;19139;49.372;8.580;2024-01-30T08:52:42;15.33;;;10.80;;
32786;SDS011;19139;49.372;8.580;2024-01-30T08:55:11;14.60;;;11.03;;
32786;SDS011;19139;49.372;8.580;2024-01-30T08:57:38;13.70;;;11.13;;
32786;SDS011;19139;49.372;8.580;2024-01-30T09:00:05;13.93;;;10.03;;
32786;SDS011;19139;49.372;8.580;2024-01-30T09:02:35;14.03;;;11.23;;
32786;SDS011;19139;49.372;8.580;2024-01-30T09:05:02;14.50;;;10.97;;
32786;SDS011;19139;49.372;8.580;2024-01-30T09:07:29;15.20;;;12.33;;
32786;SDS011;19139;49.372;8.580;2024-01-30T09:09:55;13.17;;;10.93;;
32786;SDS011;19139;49.372;8.580;2024-01-30T09:12:22;14.23;;;11.70;;
32786;SDS011;19139;49.372;8.580;2024-01-30T09:14:49;13.73;;;10.93;;
32786;SDS011;19139;49.372;8.580;2024-01-30T09:17:16;18.67;;;11.53;;
32786;SDS011;19139;49.372;8.580;2024-01-30T09:19:43;14.47;;;10.87;;
32786;SDS011;19139;49.372;8.580;2024-01-30T09:22:10;13.87;;;11.13;;
32786;SDS011;19139;49.372;8.580;2024-01-30T09:24:37;15.63;;;11.07;;
32786;SDS011;19139;49.372;8.580;2024-01-30T09:27:04;14.60;;;11.57;;
32786;SDS011;19139;49.372;8.580;2024-01-30T09:29:31;16.37;;;11.80;;
32786;SDS011;19139;49.372;8.580;2024-01-30T09:32:00;16.03;;;11.77;;
32786;SDS011;19139;49.372;8.580;2024-01-30T09:34:27;19.13;;;13.33;;
32786;SDS011;19139;49.372;8.580;2024-01-30T09:36:54;14.53;;;12.17;;
32786;SDS011;19139;49.372;8.580;2024-01-30T09:39:20;17.30;;;12.67;;
32786;SDS011;19139;49.372;8.580;2024-01-30T09:42:05;13.93;;;11.60;;
32786;SDS011;19139;49.372;8.580;2024-01-30T09:44:38;16.13;;;12.70;;
32786;SDS011;19139;49.372;8.580;2024-01-30T09:47:08;17.57;;;14.10;;
32786;SDS011;19139;49.372;8.580;2024-01-30T09:49:35;18.13;;;13.50;;
32786;SDS011;19139;49.372;8.580;2024-01-30T09:52:02;16.93;;;12.73;;
32786;SDS011;19139;49.372;8.580;2024-01-30T09:54:31;13.70;;;11.73;;
32786;SDS011;19139;49.372;8.580;2024-01-30T09:57:02;14.93;;;13.20;;
32786;SDS011;19139;49.372;8.580;2024-01-30T09:59:29;19.63;;;13.33;;
32786;SDS011;19139;49.372;8.580;2024-01-30T10:01:56;19.23;;;13.37;;
32786;SDS011;19139;49.372;8.580;2024-01-30T10:04:24;16.63;;;13.10;;
32786;SDS011;19139;49.372;8.580;2024-01-30T10:06:51;15.20;;;13.57;;
32786;SDS011;19139;49.372;8.580;2024-01-30T10:09:18;17.83;;;13.23;;
32786;SDS011;19139;49.372;8.580;2024-01-30T10:11:45;16.50;;;13.47;;
32786;SDS011;19139;49.372;8.580;2024-01-30T10:14:12;16.13;;;12.80;;
32786;SDS011;19139;49.372;8.580;2024-01-30T10:16:39;19.03;;;13.30;;
32786;SDS011;19139;49.372;8.580;2024-01-30T10:19:05;16.87;;;12.13;;
32786;SDS011;19139;49.372;8.580;2024-01-30T10:21:32;18.33;;;12.97;;
32786;SDS011;19139;49.372;8.580;2024-01-30T10:23:59;14.80;;;12.30;;
32786;SDS011;19139;49.372;8.580;2024-01-30T10:26:26;18.33;;;14.50;;
32786;SDS011;19139;49.372;8.580;2024-01-30T10:28:52;16.30;;;13.10;;
32786;SDS011;19139;49.372;8.580;2024-01-30T10:31:19;15.77;;;13.37;;
32786;SDS011;19139;49.372;8.580;2024-01-30T10:33:46;14.80;;;12.30;;
32786;SDS011;19139;49.372;8.580;2024-01-30T10:36:13;17.20;;;13.23;;
32786;SDS011;19139;49.372;8.580;2024-01-30T10:38:46;15.97;;;11.73;;
32786;SDS011;19139;49.372;8.580;2024-01-30T10:41:16;14.00;;;11.47;;
32786;SDS011;19139;49.372;8.580;2024-01-30T10:43:52;13.83;;;12.03;;
32786;SDS011;19139;49.372;8.580;2024-01-30T10:46:35;16.07;;;12.40;;
32786;SDS011;19139;49.372;8.580;2024-01-30T10:49:04;17.53;;;13.37;;
32786;SDS011;19139;49.372;8.580;2024-01-30T10:51:32;13.57;;;11.97;;
32786;SDS011;19139;49.372;8.580;2024-01-30T10:54:01;18.37;;;12.77;;
32786;SDS011;19139;49.372;8.580;2024-01-30T10:56:31;14.87;;;11.87;;
32786;SDS011;19139;49.372;8.580;2024-01-30T10:58:59;16.63;;;12.37;;
32786;SDS011;19139;49.372;8.580;2024-01-30T11:01:27;16.07;;;12.97;;
32786;SDS011;19139;49.372;8.580;2024-01-30T11:03:55;15.47;;;12.50;;
32786;SDS011;19139;49.372;8.580;2024-01-30T11:06:24;14.60;;;12.03;;
32786;SDS011;19139;49.372;8.580;2024-01-30T11:09:04;14.80;;;12.07;;
32786;SDS011;19139;49.372;8.580;2024-01-30T11:11:52;13.53;;;11.50;;
32786;SDS011;19139;49.372;8.580;2024-01-30T11:14:28;15.27;;;13.03;;
32786;SDS011;19139;49.372;8.580;2024-01-30T11:16:59;13.53;;;11.53;;
32786;SDS011;19139;49.372;8.580;2024-01-30T11:19:26;15.93;;;12.47;;
32786;SDS011;19139;49.372;8.580;2024-01-30T11:21:54;16.40;;;11.93;;
32786;SDS011;19139;49.372;8.580;2024-01-30T11:24:23;12.80;;;11.50;;
32786;SDS011;19139;49.372;8.580;2024-01-30T11:26:56;15.23;;;12.47;;
32786;SDS011;19139;49.372;8.580;2024-01-30T11:29:25;12.57;;;10.60;;
32786;SDS011;19139;49.372;8.580;2024-01-30T11:31:57;12.70;;;11.40;;
32786;SDS011;19139;49.372;8.580;2024-01-30T11:34:25;16.30;;;12.97;;
32786;SDS011;19139;49.372;8.580;2024-01-30T11:36:52;14.13;;;12.63;;
32786;SDS011;19139;49.372;8.580;2024-01-30T11:39:25;12.90;;;11.57;;
32786;SDS011;19139;49.372;8.580;2024-01-30T11:41:53;14.03;;;11.57;;
32786;SDS011;19139;49.372;8.580;2024-01-30T11:44:20;13.90;;;11.33;;
32786;SDS011;19139;49.372;8.580;2024-01-30T11:46:48;15.90;;;11.33;;
32786;SDS011;19139;49.372;8.580;2024-01-30T11:49:15;14.90;;;11.80;;
32786;SDS011;19139;49.372;8.580;2024-01-30T11:51:47;14.90;;;13.27;;
32786;SDS011;19139;49.372;8.580;2024-01-30T11:54:15;14.73;;;11.70;;
32786;SDS011;19139;49.372;8.580;2024-01-30T11:56:42;12.87;;;11.50;;
32786;SDS011;19139;49.372;8.580;2024-01-30T11:59:09;15.50;;;12.80;;
32786;SDS011;19139;49.372;8.580;2024-01-30T12:01:36;15.73;;;12.90;;
32786;SDS011;19139;49.372;8.580;2024-01-30T12:04:03;16.33;;;12.47;;
32786;SDS011;19139;49.372;8.580;2024-01-30T12:06:34;13.80;;;12.33;;
32786;SDS011;19139;49.372;8.580;2024-01-30T12:09:03;14.03;;;11.80;;
32786;SDS011;19139;49.372;8.580;2024-01-30T12:11:46;14.73;;;12.20;;
32786;SDS011;19139;49.372;8.580;2024-01-30T12:14:13;14.50;;;11.20;;
32786;SDS011;19139;49.372;8.580;2024-01-30T12:16:40;13.87;;;12.07;;
32786;SDS011;19139;49.372;8.580;2024-01-30T12:19:10;15.17;;;12.90;;
32786;SDS011;19139;49.372;8.580;2024-01-30T12:21:38;13.90;;;11.37;;
32786;SDS011;19139;49.372;8.580;2024-01-30T12:24:05;13.50;;;11.40;;
32786;SDS011;19139;49.372;8.580;2024-01-30T12:26:33;12.90;;;11.30;;
32786;SDS011;19139;49.372;8.580;2024-01-30T12:29:00;14.73;;;11.07;;
32786;SDS011;19139;49.372;8.580;2024-01-30T12:31:31;13.23;;;11.83;;
32786;SDS011;19139;49.372;8.580;2024-01-30T12:33:59;12.63;;;10.87;;
32786;SDS011;19139;49.372;8.580;2024-01-30T12:36:28;13.43;;;11.50;;
32786;SDS011;19139;49.372;8.580;2024-01-30T12:38:56;11.23;;;9.97;;
32786;SDS011;19139;49.372;8.580;2024-01-30T12:41:24;14.63;;;11.33;;
32786;SDS011;19139;49.372;8.580;2024-01-30T12:43:54;14.20;;;11.50;;
32786;SDS011;19139;49.372;8.580;2024-01-30T12:46:29;12.67;;;10.77;;
32786;SDS011;19139;49.372;8.580;2024-01-30T12:48:55;13.90;;;11.57;;
32786;SDS011;19139;49.372;8.580;2024-01-30T12:51:23;11.97;;;10.77;;
32786;SDS011;19139;49.372;8.580;2024-01-30T12:53:50;12.27;;;11.07;;
32786;SDS011;19139;49.372;8.580;2024-01-30T12:56:17;15.30;;;11.90;;
32786;SDS011;19139;49.372;8.580;2024-01-30T12:58:44;12.40;;;10.63;;
32786;SDS011;19139;49.372;8.580;2024-01-30T13:01:15;13.43;;;9.30;;
32786;SDS011;19139;49.372;8.580;2024-01-30T13:03:42;13.87;;;11.33;;
32786;SDS011;19139;49.372;8.580;2024-01-30T13:06:09;17.10;;;11.40;;
32786;SDS011;19139;49.372;8.580;2024-01-30T13:08:36;20.30;;;15.40;;
32786;SDS011;19139;49.372;8.580;2024-01-30T13:11:03;17.97;;;13.47;;
32786;SDS011;19139;49.372;8.580;2024-01-30T13:13:29;20.40;;;14.07;;
32786;SDS011;19139;49.372;8.580;2024-01-30T13:15:57;14.30;;;11.67;;
32786;SDS011;19139;49.372;8.580;2024-01-30T13:18:24;13.73;;;11.37;;
32786;SDS011;19139;49.372;8.580;2024-01-30T13:20:51;20.63;;;14.90;;
32786;SDS011;19139;49.372;8.580;2024-01-30T13:23:18;14.37;;;11.30;;
32786;SDS011;19139;49.372;8.580;2024-01-30T13:25:45;13.87;;;11.03;;
32786;SDS011;19139;49.372;8.580;2024-01-30T13:28:12;14.90;;;11.23;;
32786;SDS011;19139;49.372;8.580;2024-01-30T13:30:39;14.50;;;10.60;;
32786;SDS011;19139;49.372;8.580;2024-01-30T13:33:06;15.70;;;11.10;;
32786;SDS011;19139;49.372;8.580;2024-01-30T13:35:33;10.47;;;8.63;;
32786;SDS011;19139;49.372;8.580;2024-01-30T13:37:59;12.37;;;9.37;;
32786;SDS011;19139;49.372;8.580;2024-01-30T13:40:26;9.90;;;8.03;;
32786;SDS011;19139;49.372;8.580;2024-01-30T13:42:53;11.70;;;9.07;;
32786;SDS011;19139;49.372;8.580;2024-01-30T13:45:20;11.13;;;8.57;;
32786;SDS011;19139;49.372;8.580;2024-01-30T13:47:49;9.73;;;8.03;;
32786;SDS011;19139;49.372;8.580;2024-01-30T13:50:16;10.03;;;8.00;;
32786;SDS011;19139;49.372;8.580;2024-01-30T13:52:43;8.73;;;7.57;;
32786;SDS011;19139;49.372;8.580;2024-01-30T13:55:11;10.50;;;8.33;;
32786;SDS011;19139;49.372;8.580;2024-01-30T13:57:38;13.57;;;9.33;;
32786;SDS011;19139;49.372;8.580;2024-01-30T14:00:05;11.50;;;9.00;;
32786;SDS011;19139;49.372;8.580;2024-01-30T14:02:33;9.90;;;8.10;;
32786;SDS011;19139;49.372;8.580;2024-01-30T14:05:00;10.83;;;8.10;;
32786;SDS011;19139;49.372;8.580;2024-01-30T14:07:27;10.10;;;8.40;;
32786;SDS011;19139;49.372;8.580;2024-01-30T14:09:54;11.67;;;9.17;;
32786;SDS011;19139;49.372;8.580;2024-01-30T14:12:21;13.27;;;8.97;;
32786;SDS011;19139;49.372;8.580;2024-01-30T14:14:48;9.73;;;8.57;;
32786;SDS011;19139;49.372;8.580;2024-01-30T14:17:15;9.23;;;8.27;;
32786;SDS011;19139;49.372;8.580;2024-01-30T14:19:41;9.47;;;7.70;;
32786;SDS011;19139;49.372;8.580;2024-01-30T14:22:08;9.83;;;7.37;;
32786;SDS011;19139;49.372;8.580;2024-01-30T14:24:35;9.67;;;7.53;;
32786;SDS011;19139;49.372;8.580;2024-01-30T14:27:03;9.67;;;7.80;;